Time;durP1;ratioP1;P1;durP2;ratioP2;P2;SDS_P1;SDS_P2;PMS_P1;PMS_P2;Temp;Humidity;BMP_temperature;BMP_pressure;BME280_temperature;BME280_humidity;BME280_pressure;Samples;Min_cycle;Max_cycle;Signal;HPM_P1;HPM_P2
2022/04/03 00:01:17;;;;;;;4.50;2.55;;;1.10;99.90;;;;;;4687592;28;10000135;-67
2022/04/03 00:03:43;;;;;;;4.18;2.60;;;1.10;99.90;;;;;;5035256;28;20083;-67
2022/04/03 00:06:08;;;;;;;4.70;2.75;;;1.10;99.90;;;;;;5041797;28;20036;-67
2022/04/03 00:08:34;;;;;;;3.13;2.47;;;1.10;99.90;;;;;;5052636;28;20516;-67
2022/04/03 00:10:59;;;;;;;4.63;2.88;;;1.10;99.90;;;;;;5039461;28;20048;-67
2022/04/03 00:13:26;;;;;;;3.40;2.30;;;1.00;99.90;;;;;;5033721;28;20029;-67
2022/04/03 00:15:52;;;;;;;4.05;2.70;;;1.00;99.90;;;;;;5030889;28;20026;-67
2022/04/03 00:18:18;;;;;;;7.78;2.50;;;1.00;99.90;;;;;;5038757;28;20094;-67
2022/04/03 00:20:44;;;;;;;4.25;2.45;;;1.00;99.90;;;;;;5034647;28;20737;-67
2022/04/03 00:23:10;;;;;;;4.63;2.33;;;1.00;99.90;;;;;;5032585;28;20076;-67
2022/04/03 00:25:37;;;;;;;3.22;2.25;;;1.00;99.90;;;;;;5035962;28;20603;-67
2022/04/03 00:28:03;;;;;;;6.18;2.50;;;0.90;99.90;;;;;;5037874;28;20054;-67
2022/04/03 00:30:28;;;;;;;4.00;2.45;;;1.00;99.90;;;;;;5037985;28;20053;-68
2022/04/03 00:32:54;;;;;;;5.00;2.40;;;1.00;99.90;;;;;;5042405;28;20020;-67
2022/04/03 00:35:20;;;;;;;4.13;2.42;;;0.90;99.90;;;;;;5030342;28;20725;-67
2022/04/03 00:37:46;;;;;;;5.05;2.42;;;0.90;99.90;;;;;;5037938;28;20021;-67
2022/04/03 00:40:13;;;;;;;6.20;2.80;;;0.90;99.90;;;;;;5033777;28;20036;-67
2022/04/03 00:42:39;;;;;;;4.88;2.30;;;0.90;99.90;;;;;;5040558;28;20038;-67
2022/04/03 00:45:06;;;;;;;5.15;2.53;;;0.90;99.90;;;;;;5032949;28;20025;-67
2022/04/03 00:47:32;;;;;;;2.97;2.30;;;0.80;99.90;;;;;;5035184;28;20040;-66
2022/04/03 00:49:59;;;;;;;3.75;2.38;;;0.80;99.90;;;;;;5033815;28;20029;-67
2022/04/03 00:52:25;;;;;;;3.97;2.10;;;0.80;99.90;;;;;;5042130;28;20027;-67
2022/04/03 00:54:51;;;;;;;3.33;1.85;;;0.80;99.90;;;;;;5035876;28;20032;-66
2022/04/03 00:57:18;;;;;;;4.30;2.40;;;0.80;99.90;;;;;;5041336;28;20029;-67
2022/04/03 00:59:44;;;;;;;3.97;2.42;;;0.70;99.90;;;;;;5040122;28;20112;-67
2022/04/03 01:02:10;;;;;;;5.60;2.17;;;0.80;99.90;;;;;;5037845;28;20017;-67
2022/04/03 01:04:37;;;;;;;3.83;2.13;;;0.70;99.90;;;;;;5035381;28;20364;-67
2022/04/03 01:07:03;;;;;;;6.43;2.30;;;0.70;99.90;;;;;;5041225;28;20032;-67
2022/04/03 01:09:29;;;;;;;3.83;2.33;;;0.60;99.90;;;;;;5040831;28;20029;-67
2022/04/03 01:11:56;;;;;;;2.97;2.20;;;0.60;99.90;;;;;;5040128;28;20092;-67
2022/04/03 01:14:39;;;;;;;6.40;2.35;;;0.60;99.90;;;;;;5034878;28;20094;-67
2022/04/03 01:17:07;;;;;;;3.92;2.22;;;0.60;99.90;;;;;;5038157;28;20027;-67
2022/04/03 01:19:33;;;;;;;3.55;2.30;;;0.60;99.90;;;;;;5028869;28;20033;-67
2022/04/03 01:21:59;;;;;;;4.40;2.28;;;0.60;99.90;;;;;;5035264;28;20033;-67
2022/04/03 01:24:25;;;;;;;3.65;2.10;;;0.60;99.90;;;;;;5039159;28;20077;-67
2022/04/03 01:26:52;;;;;;;3.38;2.17;;;0.60;99.90;;;;;;5036179;28;20033;-67
2022/04/03 01:29:18;;;;;;;4.28;2.03;;;0.60;99.90;;;;;;5037044;28;20479;-67
2022/04/03 01:31:47;;;;;;;9.60;2.58;;;0.60;99.90;;;;;;5035255;28;20052;-66
2022/04/03 01:34:16;;;;;;;3.60;2.03;;;0.60;99.90;;;;;;5041479;28;20033;-67
2022/04/03 01:36:43;;;;;;;3.30;2.05;;;0.50;99.90;;;;;;5037390;28;20040;-67
2022/04/03 01:39:10;;;;;;;3.78;2.10;;;0.50;99.90;;;;;;5044324;28;20033;-67
2022/04/03 01:41:37;;;;;;;2.70;2.10;;;0.50;99.90;;;;;;5034213;28;20461;-67
2022/04/03 01:44:04;;;;;;;3.78;2.17;;;0.50;99.90;;;;;;5036918;28;20112;-67
2022/04/03 01:46:29;;;;;;;4.57;2.30;;;0.50;99.90;;;;;;5033882;28;20037;-67
2022/04/03 01:48:55;;;;;;;4.18;2.25;;;0.40;99.90;;;;;;5039220;28;20033;-66
2022/04/03 01:51:21;;;;;;;3.30;2.00;;;0.40;99.90;;;;;;5039769;28;20033;-66
2022/04/03 01:53:46;;;;;;;3.95;2.08;;;0.40;99.90;;;;;;5039489;28;20322;-67
2022/04/03 01:56:12;;;;;;;2.97;2.05;;;0.40;99.90;;;;;;5040034;28;20033;-67
2022/04/03 01:58:38;;;;;;;2.67;1.88;;;0.30;99.90;;;;;;5042955;28;20056;-66
2022/04/03 02:01:06;;;;;;;4.70;2.42;;;0.30;99.90;;;;;;5042770;28;20118;-66
2022/04/03 02:03:32;;;;;;;3.00;2.03;;;0.30;99.90;;;;;;5042527;28;20029;-66
2022/04/03 02:05:57;;;;;;;4.43;2.05;;;0.30;99.90;;;;;;5057035;28;20495;-66
2022/04/03 02:08:25;;;;;;;3.78;2.35;;;0.30;99.90;;;;;;5058125;28;20029;-66
2022/04/03 02:10:51;;;;;;;3.45;2.05;;;0.30;99.90;;;;;;5057318;28;20116;-67
2022/04/03 02:13:16;;;;;;;2.70;1.60;;;0.30;99.90;;;;;;5055355;28;20028;-66
2022/04/03 02:15:42;;;;;;;6.70;2.17;;;0.30;99.90;;;;;;5044277;28;20388;-66
2022/04/03 02:18:09;;;;;;;2.92;1.67;;;0.20;99.90;;;;;;5043562;28;20127;-66
2022/04/03 02:20:37;;;;;;;2.83;1.60;;;0.20;99.90;;;;;;5040058;28;20116;-66
2022/04/03 02:23:04;;;;;;;2.92;1.95;;;0.20;99.90;;;;;;5052035;28;20037;-67
2022/04/03 02:25:30;;;;;;;3.08;1.90;;;0.20;99.90;;;;;;5049016;28;20499;-66
2022/04/03 02:27:57;;;;;;;5.35;2.28;;;0.20;99.90;;;;;;5039783;28;22200;-66
2022/04/03 02:30:23;;;;;;;3.55;2.17;;;0.20;99.90;;;;;;5050776;28;20056;-67
2022/04/03 02:32:49;;;;;;;4.20;1.95;;;0.20;99.90;;;;;;5041177;28;20040;-67
2022/04/03 02:35:15;;;;;;;2.35;1.83;;;0.20;99.90;;;;;;5035874;28;20029;-67
2022/04/03 02:37:42;;;;;;;2.75;1.88;;;0.20;99.90;;;;;;5036305;28;20087;-67
2022/04/03 02:40:11;;;;;;;2.88;1.90;;;0.20;99.90;;;;;;5051819;28;20556;-67
2022/04/03 02:42:36;;;;;;;2.58;1.77;;;0.20;99.90;;;;;;5030917;28;20197;-67
2022/04/03 02:45:06;;;;;;;3.17;2.10;;;0.20;99.90;;;;;;5032107;28;20033;-67
2022/04/03 02:47:32;;;;;;;2.90;1.80;;;0.20;99.90;;;;;;5043597;28;20121;-67
2022/04/03 02:49:58;;;;;;;3.22;1.80;;;0.20;99.90;;;;;;5045564;28;20042;-66
2022/04/03 02:52:24;;;;;;;2.95;1.90;;;0.20;99.90;;;;;;5061070;28;20029;-67
2022/04/03 02:54:49;;;;;;;2.97;1.92;;;0.10;99.90;;;;;;5037526;28;20484;-66
2022/04/03 02:57:16;;;;;;;6.63;2.00;;;0.10;99.90;;;;;;5047448;28;20032;-67
2022/04/03 02:59:43;;;;;;;2.10;1.60;;;0.10;99.90;;;;;;5040298;28;20158;-67
2022/04/03 03:02:10;;;;;;;5.68;1.95;;;0.10;99.90;;;;;;5044954;28;20115;-67
2022/04/03 03:04:36;;;;;;;2.65;1.95;;;0.10;99.90;;;;;;5051458;28;20270;-67
2022/04/03 03:07:06;;;;;;;5.35;2.30;;;0.10;99.90;;;;;;5037633;28;20063;-67
2022/04/03 03:09:32;;;;;;;2.45;1.77;;;0.10;99.90;;;;;;5045717;28;20483;-67
2022/04/03 03:12:00;;;;;;;3.60;1.88;;;0.10;99.90;;;;;;5048141;28;20139;-67
2022/04/03 03:14:26;;;;;;;2.25;1.80;;;0.00;99.90;;;;;;5058603;28;20339;-67
2022/04/03 03:16:53;;;;;;;4.57;2.08;;;0.00;99.90;;;;;;5038626;28;20029;-66
2022/04/03 03:19:18;;;;;;;2.58;1.77;;;0.00;99.90;;;;;;5060569;28;20071;-67
2022/04/03 03:21:44;;;;;;;2.60;1.90;;;-0.10;99.90;;;;;;5052299;28;20056;-66
2022/04/03 03:24:10;;;;;;;2.42;1.85;;;-0.10;99.90;;;;;;5056673;28;20547;-67
2022/04/03 03:26:36;;;;;;;2.40;1.77;;;-0.10;99.90;;;;;;5034966;28;20033;-67
2022/04/03 03:29:02;;;;;;;4.63;2.00;;;-0.10;99.90;;;;;;5047172;28;20119;-68
2022/04/03 03:31:28;;;;;;;3.50;1.92;;;-0.30;99.90;;;;;;5060444;28;20149;-68
2022/04/03 03:33:54;;;;;;;4.50;1.98;;;-0.40;99.90;;;;;;5049734;28;20125;-67
2022/04/03 03:36:21;;;;;;;3.45;2.00;;;-0.50;99.90;;;;;;5048173;28;20292;-68
2022/04/03 03:38:46;;;;;;;5.80;2.35;;;-0.50;99.90;;;;;;5046868;28;20056;-67
2022/04/03 03:41:14;;;;;;;3.58;1.85;;;-0.60;99.90;;;;;;5040258;28;20511;-68
2022/04/03 03:43:40;;;;;;;2.55;1.77;;;-0.60;99.90;;;;;;5043480;28;20108;-67
2022/04/03 03:46:06;;;;;;;3.60;1.90;;;-0.60;99.90;;;;;;5049009;28;20035;-67
2022/04/03 03:48:31;;;;;;;3.85;2.00;;;-0.70;99.90;;;;;;5039698;28;20029;-67
2022/04/03 03:50:57;;;;;;;3.47;2.00;;;-0.60;99.90;;;;;;5058409;28;20043;-67
2022/04/03 03:53:23;;;;;;;5.03;2.10;;;-0.60;99.90;;;;;;5044611;28;20584;-68
2022/04/03 03:55:49;;;;;;;3.15;1.88;;;-0.50;99.90;;;;;;5040459;28;20025;-67
2022/04/03 03:58:15;;;;;;;3.85;1.90;;;-0.50;99.90;;;;;;5040272;28;20033;-67
2022/04/03 04:00:40;;;;;;;3.08;2.05;;;-0.40;99.90;;;;;;5040487;28;20219;-67
2022/04/03 04:03:06;;;;;;;4.35;2.00;;;-0.40;99.90;;;;;;5035716;28;20082;-67
2022/04/03 04:05:32;;;;;;;3.83;2.30;;;-0.40;99.90;;;;;;5042919;28;20395;-67
2022/04/03 04:07:58;;;;;;;3.35;2.30;;;-0.40;99.90;;;;;;5045207;28;20029;-68
2022/04/03 04:10:23;;;;;;;3.88;2.20;;;-0.40;99.90;;;;;;5036893;28;20040;-67
2022/04/03 04:12:49;;;;;;;3.05;1.85;;;-0.50;99.90;;;;;;5040360;28;20048;-67
2022/04/03 04:15:16;;;;;;;4.75;1.85;;;-0.50;99.90;;;;;;5038982;28;20052;-68
2022/04/03 04:17:46;;;;;;;4.72;1.90;;;-0.50;99.90;;;;;;5036237;28;20036;-67
2022/04/03 04:20:16;;;;;;;4.45;2.17;;;-0.60;99.90;;;;;;5034906;28;20033;-67
2022/04/03 04:22:44;;;;;;;3.97;2.58;;;-0.60;99.90;;;;;;5037893;28;20108;-68
2022/04/03 04:25:11;;;;;;;2.88;2.00;;;-0.60;99.90;;;;;;5029875;28;20034;-67
2022/04/03 04:27:37;;;;;;;4.13;2.20;;;-0.60;99.90;;;;;;5034599;28;20501;-67
2022/04/03 04:30:04;;;;;;;3.53;2.42;;;-0.60;99.90;;;;;;5038736;28;20171;-67
2022/04/03 04:32:30;;;;;;;3.00;2.05;;;-0.60;99.90;;;;;;5037179;28;20033;-67
2022/04/03 04:34:55;;;;;;;3.60;2.28;;;-0.60;99.90;;;;;;5033131;28;20036;-67
2022/04/03 04:37:21;;;;;;;4.80;2.13;;;-0.60;99.90;;;;;;5043899;28;20025;-67
2022/04/03 04:39:47;;;;;;;3.25;1.80;;;-0.70;99.90;;;;;;5035192;28;20052;-68
2022/04/03 04:42:13;;;;;;;2.65;1.80;;;-0.80;99.90;;;;;;5040555;28;20033;-67
2022/04/03 04:44:39;;;;;;;3.38;1.92;;;-1.00;99.90;;;;;;5037069;28;20036;-67
2022/04/03 04:47:05;;;;;;;3.75;2.00;;;-1.20;99.90;;;;;;5036560;28;20059;-67
2022/04/03 04:49:31;;;;;;;3.10;1.95;;;-1.40;99.90;;;;;;5043631;28;20081;-67
2022/04/03 04:51:56;;;;;;;16.08;5.00;;;-1.60;99.90;;;;;;5038411;28;20025;-68
2022/04/03 04:54:23;;;;;;;29.63;8.85;;;-1.70;99.90;;;;;;5041158;28;20163;-67
2022/04/03 04:56:48;;;;;;;39.72;12.60;;;-1.80;99.90;;;;;;5033036;28;20793;-68
2022/04/03 04:59:14;;;;;;;35.78;12.15;;;-1.90;99.90;;;;;;5035291;28;20135;-67
2022/04/03 05:01:40;;;;;;;26.55;9.88;;;-2.00;99.90;;;;;;5040047;28;20362;-67
2022/04/03 05:04:06;;;;;;;23.10;10.15;;;-2.00;99.90;;;;;;5044481;28;20128;-67
2022/04/03 05:06:34;;;;;;;21.23;9.48;;;-2.00;99.90;;;;;;5046530;28;20033;-68
2022/04/03 05:09:01;;;;;;;15.05;7.47;;;-2.10;99.90;;;;;;5046738;28;20041;-67
2022/04/03 05:11:26;;;;;;;14.70;6.75;;;-2.10;99.90;;;;;;5061399;28;20040;-67
2022/04/03 05:13:52;;;;;;;11.25;6.05;;;-2.10;99.90;;;;;;5048344;28;20029;-67
2022/04/03 05:16:18;;;;;;;14.65;7.32;;;-2.20;99.90;;;;;;5058851;28;20036;-68
2022/04/03 05:18:44;;;;;;;14.93;9.00;;;-2.10;99.90;;;;;;5047846;28;20026;-67
2022/04/03 05:21:10;;;;;;;16.08;8.95;;;-2.10;99.90;;;;;;5049471;28;20116;-67
2022/04/03 05:23:38;;;;;;;30.23;15.32;;;-2.20;99.90;;;;;;5053223;28;20131;-67
2022/04/03 05:26:04;;;;;;;29.05;14.25;;;-2.10;99.90;;;;;;5047115;28;20100;-67
2022/04/03 05:28:30;;;;;;;31.20;14.93;;;-2.10;99.90;;;;;;5054878;28;20025;-68
2022/04/03 05:30:55;;;;;;;19.48;10.25;;;-2.10;99.90;;;;;;5044186;28;20056;-68
2022/04/03 05:33:22;;;;;;;10.07;5.50;;;-2.10;99.90;;;;;;5048652;28;20031;-67
2022/04/03 05:35:48;;;;;;;12.32;6.28;;;-2.00;99.90;;;;;;5053622;28;20164;-67
2022/04/03 05:38:14;;;;;;;11.45;6.63;;;-1.90;99.90;;;;;;5047931;28;20116;-67
2022/04/03 05:40:40;;;;;;;8.82;5.03;;;-1.90;99.90;;;;;;5031269;28;20053;-67
2022/04/03 05:43:05;;;;;;;6.03;4.00;;;-1.80;99.90;;;;;;5040425;28;20041;-67
2022/04/03 05:45:31;;;;;;;7.22;3.50;;;-1.70;99.90;;;;;;5046172;28;20033;-67
2022/04/03 05:47:57;;;;;;;4.65;3.35;;;-1.70;99.90;;;;;;5045834;28;20028;-67
2022/04/03 05:50:23;;;;;;;4.70;3.13;;;-1.60;99.90;;;;;;5047044;28;20082;-67
2022/04/03 05:52:50;;;;;;;5.25;3.05;;;-1.40;99.90;;;;;;5045680;28;20036;-67
2022/04/03 05:55:19;;;;;;;6.38;3.00;;;-1.30;99.90;;;;;;5042491;28;20047;-67
2022/04/03 05:57:46;;;;;;;8.82;3.60;;;-1.20;99.90;;;;;;5043702;28;20033;-67
2022/04/03 06:00:15;;;;;;;4.60;2.97;;;-1.10;99.90;;;;;;5042548;28;20040;-67
2022/04/03 06:03:02;;;;;;;11.27;6.05;;;-1.00;99.90;;;;;;5037718;28;20040;-67
2022/04/03 06:05:32;;;;;;;8.40;6.15;;;-1.00;99.90;;;;;;5031251;28;20025;-67
2022/04/03 06:07:57;;;;;;;10.65;6.15;;;-1.00;99.90;;;;;;5043059;28;20520;-67
2022/04/03 06:10:25;;;;;;;15.07;9.45;;;-1.00;99.90;;;;;;5038202;28;20051;-67
2022/04/03 06:12:59;;;;;;;13.77;6.97;;;-1.00;99.90;;;;;;5045634;28;20028;-67
2022/04/03 06:15:27;;;;;;;41.20;22.67;;;-0.90;99.90;;;;;;5038726;28;20033;-67
2022/04/03 06:17:53;;;;;;;16.08;8.85;;;-0.80;99.90;;;;;;5039508;28;20017;-67
2022/04/03 06:20:19;;;;;;;9.20;6.53;;;-0.80;99.90;;;;;;5034771;28;20025;-67
2022/04/03 06:22:45;;;;;;;10.35;6.38;;;-0.80;99.90;;;;;;5040913;28;20189;-67
2022/04/03 06:25:11;;;;;;;12.60;7.10;;;-0.80;99.90;;;;;;5043938;28;20480;-67
2022/04/03 06:27:37;;;;;;;8.27;5.35;;;-0.80;99.90;;;;;;5039350;28;20388;-67
2022/04/03 06:30:03;;;;;;;12.60;6.03;;;-0.80;99.90;;;;;;5035868;28;20094;-67
2022/04/03 06:32:29;;;;;;;10.60;6.15;;;-0.80;99.90;;;;;;5039000;28;20040;-67
2022/04/03 06:34:55;;;;;;;21.35;10.77;;;-0.70;99.90;;;;;;5043824;28;20025;-67
2022/04/03 06:37:21;;;;;;;17.67;9.73;;;-0.60;99.90;;;;;;5039161;28;20047;-67
2022/04/03 06:39:46;;;;;;;14.80;7.45;;;-0.60;99.90;;;;;;5047025;28;20029;-67
2022/04/03 06:42:12;;;;;;;8.43;5.55;;;-0.60;99.90;;;;;;5043316;28;20120;-67
2022/04/03 06:44:39;;;;;;;13.05;6.38;;;-0.50;99.90;;;;;;4337787;28;10001290;-67
2022/04/03 06:47:05;;;;;;;9.32;5.65;;;-0.50;99.90;;;;;;5048857;28;20457;-67
2022/04/03 06:49:31;;;;;;;12.02;6.38;;;-0.40;99.90;;;;;;5050893;28;20032;-66
2022/04/03 06:51:57;;;;;;;5.72;4.43;;;-0.30;99.90;;;;;;5044847;28;20033;-66
2022/04/03 06:54:23;;;;;;;10.00;6.43;;;-0.30;99.90;;;;;;5047375;28;20031;-67
2022/04/03 06:56:48;;;;;;;6.50;4.10;;;-0.30;99.90;;;;;;5043031;28;20033;-67
2022/04/03 06:59:14;;;;;;;5.88;3.78;;;-0.30;99.90;;;;;;5043222;28;20025;-67
2022/04/03 07:01:39;;;;;;;7.63;6.30;;;-0.20;99.90;;;;;;5034627;28;21409;-68
2022/04/03 07:04:05;;;;;;;9.48;7.10;;;-0.20;99.90;;;;;;5043219;28;20045;-67
2022/04/03 07:06:31;;;;;;;5.85;4.40;;;0.00;99.90;;;;;;5048192;28;20079;-67
2022/04/03 07:08:56;;;;;;;6.03;3.67;;;0.00;99.90;;;;;;5041339;28;20139;-68
2022/04/03 07:11:22;;;;;;;9.68;5.10;;;-0.10;99.90;;;;;;5046454;28;20041;-68
2022/04/03 07:13:48;;;;;;;27.08;11.32;;;0.00;99.90;;;;;;5042545;28;20083;-67
2022/04/03 07:16:15;;;;;;;12.73;8.45;;;0.00;99.90;;;;;;5047018;28;20056;-67
2022/04/03 07:18:40;;;;;;;13.05;9.07;;;0.10;99.90;;;;;;5041436;28;20064;-68
2022/04/03 07:21:06;;;;;;;7.07;3.90;;;0.30;99.90;;;;;;5039165;28;20099;-67
2022/04/03 07:23:32;;;;;;;8.60;5.70;;;0.40;99.90;;;;;;5034099;28;20036;-67
2022/04/03 07:25:57;;;;;;;8.10;4.60;;;0.60;99.90;;;;;;5039107;28;20029;-67
2022/04/03 07:28:23;;;;;;;8.82;4.95;;;0.70;99.90;;;;;;5046525;28;20036;-68
2022/04/03 07:30:49;;;;;;;13.90;8.85;;;0.90;99.90;;;;;;5035238;28;20872;-67
2022/04/03 07:33:14;;;;;;;9.18;5.18;;;1.00;99.90;;;;;;5044139;28;20124;-68
2022/04/03 07:35:40;;;;;;;8.48;5.05;;;0.90;99.90;;;;;;5039807;28;20044;-69
2022/04/03 07:38:06;;;;;;;8.45;4.53;;;0.70;99.90;;;;;;5037922;28;20487;-67
2022/04/03 07:40:32;;;;;;;10.05;6.28;;;0.70;99.90;;;;;;5040681;28;20507;-67
2022/04/03 07:42:58;;;;;;;8.13;4.68;;;0.70;99.90;;;;;;5033184;28;20033;-68
2022/04/03 07:45:24;;;;;;;9.27;5.60;;;0.80;99.90;;;;;;5029756;28;20041;-68
2022/04/03 07:47:50;;;;;;;9.13;5.38;;;0.90;99.90;;;;;;5037212;28;20033;-67
2022/04/03 07:50:18;;;;;;;8.20;5.15;;;1.00;99.90;;;;;;5025843;28;20124;-68
2022/04/03 07:52:45;;;;;;;7.15;4.57;;;1.10;99.90;;;;;;5047902;28;20587;-67
2022/04/03 07:55:11;;;;;;;7.97;5.28;;;1.20;99.90;;;;;;5038223;28;20033;-67
2022/04/03 07:57:40;;;;;;;7.07;4.35;;;1.30;99.90;;;;;;5041456;28;20116;-66
2022/04/03 08:00:08;;;;;;;6.70;3.80;;;1.40;99.90;;;;;;5031074;28;20040;-68
2022/04/03 08:02:37;;;;;;;6.13;4.05;;;1.60;99.90;;;;;;5035596;28;20025;-68
2022/04/03 08:05:03;;;;;;;6.45;3.70;;;1.80;99.90;;;;;;5033372;28;20048;-68
2022/04/03 08:07:37;;;;;;;6.82;4.32;;;1.90;99.90;;;;;;5043690;28;20119;-69
2022/04/03 08:10:08;;;;;;;5.97;4.07;;;2.00;99.90;;;;;;5032330;28;20045;-69
2022/04/03 08:12:38;;;;;;;7.50;5.28;;;2.10;99.90;;;;;;5042934;28;20039;-67
2022/04/03 08:15:07;;;;;;;6.43;4.07;;;2.30;99.90;;;;;;5034866;28;20392;-67
2022/04/03 08:17:34;;;;;;;5.05;3.70;;;2.40;99.90;;;;;;5041356;28;20117;-66
2022/04/03 08:20:03;;;;;;;8.52;4.15;;;2.50;99.90;;;;;;5037724;28;20112;-67
2022/04/03 08:22:28;;;;;;;5.90;3.67;;;2.70;99.90;;;;;;5041880;28;20047;-67
2022/04/03 08:24:54;;;;;;;9.70;3.30;;;2.80;99.90;;;;;;5043171;28;20387;-67
2022/04/03 08:27:20;;;;;;;5.68;3.58;;;2.80;99.90;;;;;;5051793;28;20024;-67
2022/04/03 08:29:46;;;;;;;7.90;3.58;;;3.00;99.90;;;;;;5037974;28;20062;-67
2022/04/03 08:32:13;;;;;;;6.00;3.53;;;3.10;99.90;;;;;;5035181;28;20403;-67
2022/04/03 08:34:39;;;;;;;5.05;3.35;;;3.10;99.90;;;;;;5037645;28;20044;-67
2022/04/03 08:37:05;;;;;;;4.88;3.45;;;3.20;99.90;;;;;;5047682;28;20052;-68
2022/04/03 08:39:31;;;;;;;5.70;3.20;;;3.30;99.90;;;;;;5049238;28;20021;-68
2022/04/03 08:41:57;;;;;;;5.60;2.97;;;3.20;99.90;;;;;;5050572;28;20448;-68
2022/04/03 08:44:23;;;;;;;4.93;3.13;;;3.40;99.90;;;;;;5042637;28;20037;-67
2022/04/03 08:46:49;;;;;;;5.10;3.15;;;3.50;99.90;;;;;;5049312;28;20506;-68
2022/04/03 08:49:19;;;;;;;5.05;3.38;;;3.60;99.90;;;;;;5039820;28;20028;-68
2022/04/03 08:51:46;;;;;;;4.20;2.90;;;3.80;99.90;;;;;;5051232;28;20036;-67
2022/04/03 08:54:14;;;;;;;4.72;3.03;;;3.90;99.90;;;;;;5041888;28;20544;-68
2022/04/03 08:56:40;;;;;;;4.28;3.03;;;4.00;99.90;;;;;;5049895;28;20037;-68
2022/04/03 08:59:05;;;;;;;4.78;2.85;;;4.10;99.90;;;;;;5036954;28;20481;-69
2022/04/03 09:01:31;;;;;;;5.63;3.13;;;4.20;99.90;;;;;;5043923;28;20060;-68
2022/04/03 09:03:56;;;;;;;4.30;2.90;;;4.30;99.90;;;;;;5034193;28;20029;-68
2022/04/03 09:06:22;;;;;;;5.28;3.63;;;4.40;99.90;;;;;;5040537;28;20026;-66
2022/04/03 09:08:48;;;;;;;6.20;3.60;;;4.40;99.90;;;;;;5041346;28;20378;-67
2022/04/03 09:11:15;;;;;;;4.13;2.90;;;4.60;99.70;;;;;;5042341;28;20037;-66
2022/04/03 09:13:42;;;;;;;7.47;2.78;;;4.60;99.30;;;;;;5042641;28;20409;-66
2022/04/03 09:16:08;;;;;;;6.75;2.70;;;4.60;97.70;;;;;;5045742;28;20116;-67
2022/04/03 09:18:47;;;;;;;4.85;2.72;;;4.70;95.20;;;;;;5051682;28;20074;-67
2022/04/03 09:21:18;;;;;;;6.60;2.83;;;4.70;94.70;;;;;;5035925;28;20040;-67
2022/04/03 09:24:07;;;;;;;3.45;2.55;;;4.90;95.00;;;;;;5046427;28;20016;-68
2022/04/03 09:26:34;;;;;;;4.88;2.90;;;4.90;93.70;;;;;;5042861;28;20032;-68
2022/04/03 09:29:17;;;;;;;4.47;2.67;;;5.10;91.20;;;;;;5043788;28;22329;-69
2022/04/03 09:31:45;;;;;;;4.00;2.42;;;5.40;90.10;;;;;;5036107;28;20045;-68
2022/04/03 09:34:19;;;;;;;5.82;2.42;;;5.70;85.30;;;;;;5038016;28;20032;-69
2022/04/03 09:37:01;;;;;;;4.43;2.50;;;5.60;86.60;;;;;;5031137;28;20029;-69
2022/04/03 09:39:30;;;;;;;5.15;3.00;;;5.50;91.20;;;;;;5033640;28;20031;-68
2022/04/03 09:42:00;;;;;;;3.67;2.40;;;5.50;90.50;;;;;;5030327;28;20029;-69
2022/04/03 09:44:32;;;;;;;3.72;2.45;;;5.50;85.30;;;;;;5039319;28;20072;-68
2022/04/03 09:47:26;;;;;;;6.80;2.78;;;5.60;85.10;;;;;;5054227;28;20043;-68
2022/04/03 09:50:04;;;;;;;3.17;2.25;;;5.80;82.30;;;;;;5036395;28;20115;-68
2022/04/03 09:52:43;;;;;;;3.88;2.65;;;5.90;82.40;;;;;;5030642;28;20032;-68
2022/04/03 09:55:20;;;;;;;5.22;2.53;;;6.00;83.70;;;;;;5040707;28;20052;-68
2022/04/03 09:57:47;;;;;;;4.85;3.65;;;6.10;83.30;;;;;;5038787;28;20364;-68
2022/04/03 10:00:31;;;;;;;4.68;3.50;;;6.10;81.70;;;;;;5038019;28;20115;-68
2022/04/03 10:03:02;;;;;;;6.25;2.67;;;6.20;82.80;;;;;;5034302;28;20057;-68
2022/04/03 10:05:29;;;;;;;3.33;2.70;;;6.30;78.40;;;;;;5039095;28;20486;-68
2022/04/03 10:08:04;;;;;;;4.15;2.55;;;6.40;79.50;;;;;;5032533;28;20258;-68
2022/04/03 10:10:34;;;;;;;3.72;2.80;;;6.40;81.40;;;;;;5025549;28;20095;-68
2022/04/03 10:13:00;;;;;;;5.45;3.13;;;6.40;81.00;;;;;;5030212;28;20028;-68
2022/04/03 10:15:27;;;;;;;3.28;2.63;;;6.40;76.40;;;;;;5046075;28;20033;-68
2022/04/03 10:17:53;;;;;;;4.18;2.63;;;6.50;80.00;;;;;;5033189;28;20026;-68
2022/04/03 10:20:19;;;;;;;3.17;2.60;;;6.30;80.30;;;;;;5040753;28;20025;-68
2022/04/03 10:22:51;;;;;;;4.35;2.83;;;6.40;81.40;;;;;;5052163;28;20028;-69
2022/04/03 10:25:27;;;;;;;3.63;2.23;;;6.50;87.40;;;;;;5034568;28;20404;-69
2022/04/03 10:27:55;;;;;;;2.75;2.25;;;;;;;;;;5033431;28;20382;-68
2022/04/03 10:30:37;;;;;;;5.70;3.42;;;7.00;91.50;;;;;;5040838;28;20106;-69
2022/04/03 10:33:03;;;;;;;4.82;3.40;;;7.00;89.40;;;;;;5033596;28;20030;-69
2022/04/03 10:35:29;;;;;;;4.60;3.17;;;7.00;92.20;;;;;;5041107;28;20183;-70
2022/04/03 10:38:03;;;;;;;4.75;2.50;;;6.80;90.70;;;;;;5032886;28;20029;-69
2022/04/03 10:40:33;;;;;;;4.82;2.70;;;6.50;66.30;;;;;;5038674;28;20033;-70
2022/04/03 10:43:02;;;;;;;6.45;2.60;;;6.40;67.50;;;;;;5027693;28;20500;-68
2022/04/03 10:45:27;;;;;;;2.78;2.42;;;6.30;67.20;;;;;;5029909;28;20095;-68
2022/04/03 10:48:19;;;;;;;3.15;2.47;;;6.30;67.10;;;;;;5029580;28;20803;-70
2022/04/03 10:51:05;;;;;;;3.28;2.42;;;6.50;69.10;;;;;;5037242;28;20044;-68
2022/04/03 10:53:48;;;;;;;3.65;2.65;;;6.50;69.10;;;;;;5030559;28;20028;-70
2022/04/03 10:56:28;;;;;;;3.13;2.50;;;6.60;71.20;;;;;;5035209;28;20036;-69
2022/04/03 10:58:56;;;;;;;3.97;2.70;;;6.70;65.30;;;;;;5031079;28;20033;-68
2022/04/03 11:01:33;;;;;;;2.50;2.30;;;6.80;68.60;;;;;;5036887;28;20260;-69
2022/04/03 11:04:02;;;;;;;3.70;2.20;;;6.90;65.00;;;;;;5031357;28;20083;-69
2022/04/03 11:06:30;;;;;;;3.67;2.60;;;6.80;63.90;;;;;;5027054;28;20037;-70
2022/04/03 11:08:58;;;;;;;4.35;3.30;;;6.80;67.00;;;;;;5028882;28;20021;-70
2022/04/03 11:11:31;;;;;;;5.80;3.90;;;6.90;70.30;;;;;;5033624;28;20099;-69
2022/04/03 11:13:57;;;;;;;4.65;3.42;;;7.10;71.70;;;;;;5033363;28;20107;-68
2022/04/03 11:16:23;;;;;;;4.78;2.97;;;;;;;;;;5031148;28;20025;-69
2022/04/03 11:18:50;;;;;;;5.65;3.15;;;7.10;74.20;;;;;;5034472;28;20029;-67
2022/04/03 11:21:33;;;;;;;4.13;3.00;;;7.20;73.10;;;;;;5033544;28;20040;-68
2022/04/03 11:24:07;;;;;;;2.80;2.30;;;7.20;68.10;;;;;;4682796;28;9999936;-69
2022/04/03 11:26:34;;;;;;;5.65;3.20;;;7.20;71.10;;;;;;5022779;28;20048;-68
2022/04/03 11:29:01;;;;;;;4.25;3.03;;;7.30;71.60;;;;;;5032376;28;20040;-68
2022/04/03 11:31:27;;;;;;;4.18;3.17;;;7.20;69.40;;;;;;5029684;28;20053;-69
2022/04/03 11:33:53;;;;;;;5.63;3.08;;;7.30;69.30;;;;;;5040473;28;20127;-69
2022/04/03 11:36:25;;;;;;;5.38;3.20;;;7.40;69.60;;;;;;5035204;28;20516;-68
2022/04/03 11:38:51;;;;;;;5.82;3.83;;;7.40;69.70;;;;;;5041998;28;20025;-69
2022/04/03 11:41:20;;;;;;;7.00;4.00;;;7.20;70.20;;;;;;5024229;28;20155;-70
2022/04/03 11:44:00;;;;;;;7.40;3.80;;;6.80;72.40;;;;;;5039881;28;20059;-67
2022/04/03 11:46:30;;;;;;;5.75;3.40;;;6.50;74.90;;;;;;5034779;28;20049;-68
2022/04/03 11:48:56;;;;;;;5.22;3.13;;;6.40;74.10;;;;;;5032148;28;20150;-69
2022/04/03 11:51:23;;;;;;;4.78;3.30;;;6.20;74.10;;;;;;5032837;28;20024;-69
2022/04/03 11:53:59;;;;;;;5.50;3.42;;;6.10;73.50;;;;;;5041182;28;20056;-67
2022/04/03 11:56:26;;;;;;;5.63;3.40;;;6.20;76.40;;;;;;5037022;28;20022;-66
2022/04/03 11:58:59;;;;;;;4.53;3.45;;;6.50;76.10;;;;;;5033985;28;20024;-68
2022/04/03 12:01:34;;;;;;;9.95;6.78;;;6.70;78.60;;;;;;5033123;28;20029;-68
2022/04/03 12:04:00;;;;;;;9.07;4.68;;;7.00;76.50;;;;;;5041525;28;20029;-68
2022/04/03 12:06:26;;;;;;;4.80;4.13;;;7.00;77.50;;;;;;5034050;28;20052;-67
2022/04/03 12:08:52;;;;;;;4.90;2.97;;;7.00;79.40;;;;;;5043671;28;20563;-68
2022/04/03 12:11:26;;;;;;;3.63;2.85;;;7.00;76.20;;;;;;5030366;28;20033;-68
2022/04/03 12:14:00;;;;;;;4.28;2.88;;;7.10;74.40;;;;;;5027517;28;20064;-68
2022/04/03 12:16:31;;;;;;;5.57;3.00;;;7.30;73.80;;;;;;5043862;28;20389;-68
2022/04/03 12:18:59;;;;;;;5.13;3.10;;;7.50;75.10;;;;;;5029999;28;20036;-68
2022/04/03 12:21:38;;;;;;;4.82;3.25;;;7.60;73.50;;;;;;5035140;28;20040;-69
2022/04/03 12:24:05;;;;;;;4.43;2.90;;;7.50;73.00;;;;;;5035354;28;20029;-68
2022/04/03 12:26:32;;;;;;;4.97;3.40;;;7.30;75.20;;;;;;5034199;28;20028;-68
2022/04/03 12:28:58;;;;;;;4.20;3.25;;;7.20;77.20;;;;;;5042968;28;20021;-68
2022/04/03 12:31:28;;;;;;;6.13;3.40;;;7.20;76.30;;;;;;5032534;28;20566;-65
2022/04/03 12:34:11;;;;;;;7.55;3.70;;;7.40;73.90;;;;;;5037128;28;20473;-69
2022/04/03 12:36:49;;;;;;;4.18;3.10;;;7.70;76.90;;;;;;5040275;28;20477;-68
2022/04/03 12:39:44;;;;;;;4.72;2.92;;;7.90;75.60;;;;;;5047677;28;20033;-68
2022/04/03 12:42:19;;;;;;;6.35;3.03;;;8.00;72.80;;;;;;5032580;28;20033;-68
2022/04/03 12:44:44;;;;;;;5.05;3.30;;;7.90;72.40;;;;;;5037263;28;20243;-68
2022/04/03 12:47:18;;;;;;;3.70;2.70;;;7.60;72.20;;;;;;5041438;28;20872;-68
2022/04/03 12:50:16;;;;;;;7.25;2.80;;;7.40;72.40;;;;;;5043267;28;20063;-68
2022/04/03 12:52:47;;;;;;;4.65;2.80;;;7.60;74.40;;;;;;5039738;28;20048;-68
2022/04/03 13:01:07;;;;;;;2.83;1.92;;;8.20;72.20;;;;;;5032004;28;20053;-68
2022/04/03 13:03:42;;;;;;;6.70;2.50;;;8.40;69.30;;;;;;5049561;28;20032;-68